Map

Track Data

SID SEASON NUMBER BASIN SUBBASIN NAME ISO_TIME NATURE LAT LON WMO_WIND WMO_PRES WMO_AGENCY TRACK_TYPE DIST2LAND LANDFALL IFLAG USA_AGENCY USA_ATCF_ID USA_LAT USA_LON USA_RECORD USA_STATUS USA_WIND USA_PRES USA_SSHS USA_R34_NE USA_R34_SE USA_R34_SW USA_R34_NW USA_R50_NE USA_R50_SE USA_R50_SW USA_R50_NW USA_R64_NE USA_R64_SE USA_R64_SW USA_R64_NW USA_POCI USA_ROCI USA_RMW USA_EYE TOKYO_LAT TOKYO_LON TOKYO_GRADE TOKYO_WIND TOKYO_PRES TOKYO_R50_DIR TOKYO_R50_LONG TOKYO_R50_SHORT TOKYO_R30_DIR TOKYO_R30_LONG TOKYO_R30_SHORT TOKYO_LAND CMA_LAT CMA_LON CMA_CAT CMA_WIND CMA_PRES HKO_LAT HKO_LON HKO_CAT HKO_WIND HKO_PRES NEWDELHI_LAT NEWDELHI_LON NEWDELHI_GRADE NEWDELHI_WIND NEWDELHI_PRES NEWDELHI_CI NEWDELHI_DP NEWDELHI_POCI REUNION_LAT REUNION_LON REUNION_TYPE REUNION_WIND REUNION_PRES REUNION_TNUM REUNION_CI REUNION_RMW REUNION_R34_NE REUNION_R34_SE REUNION_R34_SW REUNION_R34_NW REUNION_R50_NE REUNION_R50_SE REUNION_R50_SW REUNION_R50_NW REUNION_R64_NE REUNION_R64_SE REUNION_R64_SW REUNION_R64_NW BOM_LAT BOM_LON BOM_TYPE BOM_WIND BOM_PRES BOM_TNUM BOM_CI BOM_RMW BOM_R34_NE BOM_R34_SE BOM_R34_SW BOM_R34_NW BOM_R50_NE BOM_R50_SE BOM_R50_SW BOM_R50_NW BOM_R64_NE BOM_R64_SE BOM_R64_SW BOM_R64_NW BOM_ROCI BOM_POCI BOM_EYE BOM_POS_METHOD BOM_PRES_METHOD NADI_LAT NADI_LON NADI_CAT NADI_WIND NADI_PRES WELLINGTON_LAT WELLINGTON_LON WELLINGTON_WIND WELLINGTON_PRES DS824_LAT DS824_LON DS824_STAGE DS824_WIND DS824_PRES TD9636_LAT TD9636_LON TD9636_STAGE TD9636_WIND TD9636_PRES TD9635_LAT TD9635_LON TD9635_WIND TD9635_PRES TD9635_ROCI NEUMANN_LAT NEUMANN_LON NEUMANN_CLASS NEUMANN_WIND NEUMANN_PRES MLC_LAT MLC_LON MLC_CLASS MLC_WIND MLC_PRES USA_GUST BOM_GUST BOM_GUST_PER REUNION_GUST REUNION_GUST_PER USA_SEAHGT USA_SEARAD_NE USA_SEARAD_SE USA_SEARAD_SW USA_SEARAD_NW STORM_SPEED STORM_DIR
1929001S18062 1929 1 SI MM NOT_NAMED 1929-01-01 00:00:00 TS -17.7000 61.5000 main 481 472 _________O____ -1 -17.7000 61.5000 TC 35 7 156
1929001S18062 1929 1 SI MM NOT_NAMED 1929-01-01 03:00:00 TS -17.9975 61.6399 main 472 470 _________P____ -1 -17.9975 61.6399 TC 35 7 155
1929001S18062 1929 1 SI MM NOT_NAMED 1929-01-01 06:00:00 TS -18.3000 61.8000 main 475 470 _________O____ -1 -18.3000 61.8000 TC 35 7 151
1929001S18062 1929 1 SI MM NOT_NAMED 1929-01-01 09:00:00 TS -18.6075 61.9925 main 479 475 _________P____ -1 -18.6075 61.9925 TC 35 7 148
1929001S18062 1929 1 SI MM NOT_NAMED 1929-01-01 12:00:00 TS -18.9000 62.2000 main 486 483 _________O____ -1 -18.9000 62.2000 TC 35 7 145
1929001S18062 1929 1 SI MM NOT_NAMED 1929-01-01 15:00:00 TS -19.1575 62.4001 main 496 496 _________P____ -1 -19.1575 62.4001 TC 35 6 143
1929001S18062 1929 1 SI MM NOT_NAMED 1929-01-01 18:00:00 TS -19.4000 62.6000 main 511 509 _________O____ -1 -19.4000 62.6000 TC 35 6 142
1929001S18062 1929 1 SI MM NOT_NAMED 1929-01-01 21:00:00 TS -19.6575 62.8075 main 526 526 _________P____ -1 -19.6575 62.8075 TC 35 6 143
1929001S18062 1929 1 SI MM NOT_NAMED 1929-01-02 00:00:00 TS -19.9000 63.0000 main 544 543 _________O____ -1 -19.9000 63.0000 TC 35 6 144
1929001S18062 1929 1 SI MM NOT_NAMED 1929-01-02 03:00:00 TS -20.1150 63.1576 main 563 563 _________P____ -1 -20.1150 63.1576 TC 35 5 145
1929001S18062 1929 1 SI MM NOT_NAMED 1929-01-02 06:00:00 TS -20.3000 63.3000 main 573 573 _________O____ -1 -20.3000 63.3000 TC 35 4 140
1929001S18062 1929 1 SI MM NOT_NAMED 1929-01-02 09:00:00 TS -20.4575 63.4575 main 594 594 _________P____ -1 -20.4575 63.4575 TC 35 4 137
1929001S18062 1929 1 SI MM NOT_NAMED 1929-01-02 12:00:00 TS -20.6000 63.6000 main 605 605 _________O____ -1 -20.6000 63.6000 TC 35 4 143
1929001S18062 1929 1 SI MM NOT_NAMED 1929-01-02 15:00:00 TS -20.7575 63.7000 main 616 616 _________P____ -1 -20.7575 63.7000 TC 35 4 149
1929001S18062 1929 1 SI MM NOT_NAMED 1929-01-02 18:00:00 TS -20.9000 63.8000 main 627 627 _________O____ -1 -20.9000 63.8000 TC 35 3 138
1929001S18062 1929 1 SI MM NOT_NAMED 1929-01-02 21:00:00 TS -21.0000 63.9351 main 639 639 _________P____ -1 -21.0000 63.9351 TC 35 3 125
1929001S18062 1929 1 SI MM NOT_NAMED 1929-01-03 00:00:00 TS -21.1000 64.1000 main 661 661 _________O____ -1 -21.1000 64.1000 TC 35 4 126
1929001S18062 1929 1 SI MM NOT_NAMED 1929-01-03 03:00:00 TS -21.2425 64.2925 main 683 683 _________P____ -1 -21.2425 64.2925 TC 35 5 129
1929001S18062 1929 1 SI MM NOT_NAMED 1929-01-03 06:00:00 TS -21.4000 64.5000 main 706 706 _________O____ -1 -21.4000 64.5000 TC 35 5 129
1929001S18062 1929 1 SI MM NOT_NAMED 1929-01-03 09:00:00 TS -21.5500 64.7000 main 729 729 _________P____ -1 -21.5500 64.7000 TC 35 5 129
1929001S18062 1929 1 SI MM NOT_NAMED 1929-01-03 12:00:00 TS -21.7000 64.9000 main 753 753 _________O____ -1 -21.7000 64.9000 TC 35 5 130
1929001S18062 1929 1 SI MM NOT_NAMED 1929-01-03 15:00:00 TS -21.8575 65.1000 main 777 777 _________P____ -1 -21.8575 65.1000 TC 35 5 129
1929001S18062 1929 1 SI MM NOT_NAMED 1929-01-03 18:00:00 TS -22.0000 65.3000 main 800 800 _________O____ -1 -22.0000 65.3000 TC 35 4 124
1929001S18062 1929 1 SI MM NOT_NAMED 1929-01-03 21:00:00 TS -22.1101 65.5000 main 822 822 _________P____ -1 -22.1101 65.5000 TC 35 4 118
1929001S18062 1929 1 SI MM NOT_NAMED 1929-01-04 00:00:00 TS -22.2000 65.7000 main 845 _________O____ -1 -22.2000 65.7000 TC 35 4 116

About IBTrACS Database

This database is a web-friendly format of International Best Track Archive for Climate Stewardship (IBTrACS), a global best track data archive curated by NOAA dating back to 1842.

Updated: 2021-12-03